Data for 09/02/2006

Time Sea-Level Adjusted Pressure Absolute Pressure Temperature Relative Humidity Dew Point   
(mb) (inHg) (mb) (inHg) (C) (F) (%) (C) (F)
00:05 1027 30.33 856 25.28 11.8 53.3 35 -3 26.6
00:10 1027 30.33 856 25.28 11.7 53 36 -2.9 26.7
00:15 1027 30.33 856 25.28 11.8 53.2 36 -2.8 27
00:20 1027 30.33 856 25.28 11.8 53.3 36 -2.7 27.2
00:25 1027 30.33 856 25.28 11.8 53.2 36 -2.8 27
00:30 1027 30.33 856 25.28 11.9 53.3 36 -2.7 27.2
00:35 1027 30.33 856 25.28 11.9 53.3 36 -2.6 27.4
00:40 1027 30.33 856 25.28 11.8 53.2 37 -2.5 27.5
00:45 1027 30.33 856 25.28 11.8 53.2 37 -2.4 27.7
00:50 1027 30.33 856 25.28 11.7 53 37 -2.4 27.7
00:55 1027 30.33 856 25.28 11.7 53 38 -2.3 27.9
01:00 1027 30.33 856 25.28 11.6 52.9 38 -2.3 27.8
01:05 1027 30.33 856 25.28 11.5 52.7 38 -2.4 27.7
01:10 1027 30.33 856 25.28 11.5 52.7 38 -2.3 27.9
01:15 1027 30.33 856 25.28 11.4 52.4 38 -2.2 28
01:20 1027 30.33 856 25.28 11.3 52.3 38 -2.3 27.8
01:25 1027 30.33 856 25.28 11.3 52.4 38 -2.4 27.7
01:30 1027 30.33 856 25.28 11.4 52.4 38 -2.3 27.9
01:35 1027 30.33 856 25.28 11.4 52.4 38 -2.3 27.8
01:40 1027 30.33 856 25.28 11.3 52.4 38 -2.4 27.7
01:45 1027 30.33 856 25.28 11.3 52.3 38 -2.3 27.8
01:50 1027 30.33 856 25.28 11.3 52.4 38 -2.4 27.7
01:55 1027 30.33 856 25.28 11.3 52.4 38 -2.4 27.6
02:00 1027 30.33 856 25.28 11.2 52.2 38 -2.4 27.6
02:05 1026 30.3 856 25.28 11.2 52.1 39 -2.4 27.8
02:10 1027 30.33 856 25.28 11 51.9 39 -2.5 27.5
02:15 1027 30.33 856 25.28 11 51.8 39 -2.4 27.7
02:20 1027 30.33 856 25.28 10.9 51.7 39 -2.4 27.6
02:25 1027 30.33 856 25.28 10.9 51.5 39 -2.4 27.8
02:30 1026 30.3 856 25.28 10.7 51.3 40 -2.4 27.6
02:35 1026 30.3 856 25.28 10.8 51.4 40 -2.3 27.8
02:40 1026 30.3 856 25.28 10.7 51.2 40 -2.3 27.9
02:45 1026 30.3 856 25.28 10.5 50.9 40 -2.4 27.7
02:50 1026 30.3 856 25.28 10.6 51 40 -2.3 27.9
02:55 1026 30.3 856 25.28 10.5 50.9 41 -2.2 28
03:00 1027 30.33 856 25.28 10.5 50.9 41 -2.2 28
03:05 1026 30.3 856 25.28 10.4 50.7 41 -2.2 28
03:10 1026 30.3 856 25.28 10.3 50.6 42 -2.1 28.2
03:15 1026 30.3 856 25.28 10.3 50.6 42 -2.1 28.1
03:20 1026 30.3 856 25.28 10.2 50.4 42 -2.2 28.1
03:25 1026 30.3 856 25.28 10.2 50.3 42 -2.2 28.1
03:30 1026 30.3 856 25.28 10.2 50.3 42 -2.1 28.3
03:35 1026 30.3 856 25.28 10.1 50.2 42 -2.1 28.3
03:40 1027 30.33 856 25.28 10 50.1 43 -2.1 28.2
03:45 1026 30.3 856 25.28 10.1 50.2 42 -2.1 28.3
03:50 1026 30.3 856 25.28 10 50.1 43 -2.1 28.3
03:55 1026 30.3 856 25.28 10.1 50.1 42 -2.1 28.2
04:00 1027 30.33 856 25.28 10.2 50.3 42 -2 28.3
04:05 1026 30.3 856 25.28 10.1 50.3 42 -2.1 28.3
04:10 1026 30.3 856 25.28 10.2 50.4 42 -2.1 28.2
04:15 1026 30.3 856 25.28 10.4 50.8 41 -2.1 28.3
04:20 1026 30.3 856 25.28 10.5 50.9 41 -2.1 28.1
04:25 1026 30.3 856 25.28 10.6 51 41 -2.1 28.3
04:30 1026 30.3 856 25.28 10.4 50.8 42 -2 28.4
04:35 1026 30.3 856 25.28 10.2 50.4 42 -2.1 28.3
04:40 1026 30.3 856 25.28 10.1 50.2 43 -1.9 28.5
04:45 1026 30.3 856 25.28 10 49.9 43 -2 28.4
04:50 1026 30.3 856 25.28 9.8 49.6 43 -2 28.3
04:55 1026 30.3 856 25.28 9.7 49.5 44 -2 28.3
05:00 1026 30.3 856 25.28 9.7 49.4 44 -2 28.5
05:05 1026 30.3 856 25.28 9.7 49.4 43 -2.1 28.2
05:10 1026 30.3 856 25.28 9.7 49.5 44 -2 28.4
05:15 1026 30.3 856 25.28 9.7 49.4 43 -2.2 28
05:20 1027 30.33 856 25.28 9.8 49.6 42 -2.3 27.8
05:25 1027 30.33 856 25.28 9.8 49.7 43 -2.3 27.9
05:30 1027 30.33 856 25.28 9.5 49 43 -2.4 27.6
05:35 1027 30.33 856 25.28 9.4 48.8 43 -2.5 27.5
05:40 1027 30.33 856 25.28 9.5 49 43 -2.4 27.7
05:45 1027 30.33 856 25.28 9.5 49 43 -2.3 27.8
05:50 1027 30.33 856 25.28 9.3 48.7 44 -2.2 28
05:55 1026 30.3 856 25.28 9 48.3 45 -2.2 28
06:00 1026 30.3 856 25.28 8.8 47.8 46 -2.2 28.1
06:05 1026 30.3 856 25.28 8.5 47.3 47 -2.2 28
06:10 1027 30.33 856 25.28 8.4 47.1 47 -2.3 27.8
06:15 1027 30.33 856 25.28 8.4 47.1 47 -2.3 27.8
06:20 1027 30.33 856 25.28 8.4 47 47 -2.4 27.7
06:25 1026 30.3 856 25.28 8.2 46.8 47 -2.4 27.7
06:30 1026 30.3 856 25.28 8.3 46.9 47 -2.5 27.6
06:35 1026 30.3 856 25.28 8 46.5 47 -2.5 27.4
06:40 1026 30.3 856 25.28 7.7 45.9 48 -2.6 27.3
06:45 1026 30.3 856 25.28 7.5 45.5 49 -2.5 27.5
06:50 1026 30.3 856 25.28 7.8 46 48 -2.6 27.4
06:55 1026 30.3 856 25.28 8 46.3 47 -2.5 27.5
07:00 1026 30.3 856 25.28 8.1 46.7 47 -2.5 27.5
07:05 1026 30.3 856 25.28 8.3 46.9 45 -2.8 26.9
07:10 1026 30.3 856 25.28 7.9 46.2 47 -2.6 27.2
07:15 1027 30.33 856 25.28 8.1 46.5 47 -2.7 27.2
07:20 1027 30.33 856 25.28 8.5 47.2 45 -2.6 27.3
07:25 1027 30.33 856 25.28 8.6 47.5 46 -2.4 27.6
07:30 1027 30.33 856 25.28 8.7 47.7 45 -2.4 27.6
07:35 1027 30.33 856 25.28 8.7 47.7 45 -2.4 27.6
07:40 1027 30.33 856 25.28 8.7 47.6 45 -2.5 27.5
07:45 1027 30.33 856 25.28 8.6 47.5 45 -2.7 27.2
07:50 1027 30.33 856 25.28 8.5 47.4 45 -2.8 26.9
07:55 1027 30.33 856 25.28 8.5 47.3 45 -2.7 27.1
08:00 1027 30.33 856 25.28 8.4 47.2 45 -2.7 27.1
08:05 1027 30.33 856 25.28 8.4 47.2 45 -2.8 27
08:10 1027 30.33 856 25.28 8.4 47.1 44 -3 26.6
08:15 1027 30.33 856 25.28 8.6 47.5 43 -3.1 26.4
08:20 1027 30.33 856 25.28 9.4 48.9 41 -3.2 26.3
08:25 1027 30.33 856 25.28 9.7 49.4 40 -3.4 25.9
08:30 1027 30.33 856 25.28 9.8 49.7 40 -3.1 26.4
08:35 1027 30.33 856 25.28 10 50 38 -3.7 25.4
08:40 1027 30.33 856 25.28 10.3 50.5 37 -3.7 25.4
08:45 1027 30.33 856 25.28 10.5 50.8 37 -3.7 25.4
08:50 1027 30.33 856 25.28 10.8 51.5 35 -3.9 25.1
08:55 1026 30.3 856 25.28 11.2 52.1 34 -3.9 25
09:00 1026 30.3 856 25.28 11.4 52.6 34 -3.9 25
09:05 1026 30.3 856 25.28 11.7 53.1 32 -4.2 24.5
09:10 1026 30.3 856 25.28 12 53.6 32 -4 24.8
09:15 1026 30.3 856 25.28 12.1 53.9 32 -4 24.8
09:20 1026 30.3 856 25.28 12.5 54.5 32 -3.8 25.2
09:25 1026 30.3 855 25.25 12.7 54.8 30 -4.3 24.3
09:30 1026 30.3 855 25.25 12.7 54.9 31 -4.1 24.7
09:35 1026 30.3 855 25.25 13 55.5 30 -4.1 24.7
09:40 1026 30.3 855 25.25 13.4 56.1 29 -4.2 24.5
09:45 1026 30.3 855 25.25 13.8 56.8 29 -3.9 25
09:50 1026 30.3 855 25.25 14.2 57.6 29 -3.7 25.3
09:55 1026 30.3 855 25.25 14.5 58 28 -3.8 25.2
10:00 1026 30.3 855 25.25 14.7 58.5 27 -3.9 25
10:05 1026 30.3 855 25.25 14.4 57.9 30 -3.1 26.4
10:10 1026 30.3 855 25.25 14.3 57.7 30 -2.9 26.8
10:15 1026 30.3 855 25.25 14.3 57.7 30 -2.9 26.7
10:20 1026 30.3 855 25.25 14.7 58.5 30 -2.5 27.5
10:25 1026 30.3 855 25.25 15.6 60.1 29 -2.3 27.9
10:30 1026 30.3 855 25.25 15.3 59.6 30 -2.1 28.2
10:35 1026 30.3 855 25.25 15.6 60 30 -2 28.4
10:40 1026 30.3 855 25.25 15 59.1 30 -2.2 28.1
10:45 1026 30.3 855 25.25 15.8 60.4 28 -2.4 27.7
10:50 1026 30.3 855 25.25 16.4 61.5 28 -1.9 28.6
10:55 1026 30.3 855 25.25 16.6 61.8 28 -2.1 28.2
11:00 1026 30.3 855 25.25 16.7 62 26 -2.7 27.2
11:05 1026 30.3 855 25.25 17.7 63.8 26 -2.1 28.3
11:10 1026 30.3 855 25.25 17.2 63 27 -2 28.4
11:15 1026 30.3 855 25.25 16.9 62.4 26 -2.7 27.1
11:20 1026 30.3 855 25.25 17.4 63.3 26 -2 28.4
11:25 1026 30.3 855 25.25 17.7 63.9 26 -2.1 28.3
11:30 1026 30.3 855 25.25 17.5 63.6 26 -2.3 27.9
11:35 1026 30.3 855 25.25 17.4 63.2 26 -2.1 28.2
11:40 1026 30.3 855 25.25 18 64.4 25 -2.2 28
11:45 1026 30.3 855 25.25 18.9 66.1 24 -1.7 28.9
11:50 1026 30.3 855 25.25 19.3 66.7 24 -1.5 29.3
11:55 1026 30.3 855 25.25 19.3 66.8 24 -1.7 29
12:00 1025 30.27 855 25.25 19 66.2 25 -1.6 29.1
12:05 1025 30.27 855 25.25 18.6 65.6 24 -2 28.4
12:10 1025 30.27 855 25.25 19.3 66.7 23 -2.1 28.2
12:15 1025 30.27 854 25.22 19.9 67.8 23 -1.8 28.8
12:20 1025 30.27 854 25.22 19.9 67.8 21 -2.7 27.2
12:25 1025 30.27 854 25.22 19.1 66.4 24 -1.9 28.6
12:30 1025 30.27 854 25.22 20.1 68.1 22 -2.3 27.9
12:35 1025 30.27 854 25.22 20.3 68.6 22 -2.2 28.1
12:40 1025 30.27 854 25.22 19.5 67.2 23 -2.2 28.1
12:45 1025 30.27 854 25.22 19.8 67.6 22 -2.2 28
12:50 1025 30.27 854 25.22 20.4 68.7 21 -2.4 27.6
12:55 1025 30.27 854 25.22 20.4 68.7 21 -2.3 27.8
13:00 1025 30.27 854 25.22 20.7 69.3 20 -2.8 27
13:05 1025 30.27 854 25.22 20.3 68.5 21 -2.8 27
13:10 1025 30.27 854 25.22 20.5 68.9 20 -2.8 27
13:15 1025 30.27 854 25.22 20.4 68.6 21 -2.8 27
13:20 1025 30.27 854 25.22 20.5 68.9 20 -3.1 26.5
13:25 1025 30.27 854 25.22 21.7 71 20 -2.2 28.1
13:30 1024 30.24 854 25.22 22.1 71.8 20 -1.7 28.9
13:35 1024 30.24 854 25.22 21.6 70.9 20 -1.9 28.5
13:40 1024 30.24 854 25.22 21 69.8 19 -3.1 26.4
13:45 1024 30.24 853 25.19 21 69.8 19 -3.2 26.2
13:50 1024 30.24 853 25.19 21.5 70.8 18 -3.4 25.9
13:55 1024 30.24 853 25.19 22 71.6 17 -3.6 25.5
14:00 1024 30.24 853 25.19 22.2 72 18 -2.7 27.1
14:05 1024 30.24 853 25.19 22.6 72.8 17 -3.2 26.2
14:10 1024 30.24 853 25.19 22 71.5 18 -3.4 26
14:15 1024 30.24 853 25.19 22.4 72.4 18 -3.2 26.2
14:20 1024 30.24 853 25.19 23.1 73.5 16 -3.7 25.3
14:25 1024 30.24 853 25.19 23.7 74.7 16 -3.7 25.3
14:30 1024 30.24 853 25.19 23.2 73.8 16 -3.7 25.3
14:35 1024 30.24 853 25.19 23 73.4 16 -4 24.9
14:40 1024 30.24 853 25.19 23.7 74.6 15 -4.1 24.7
14:45 1024 30.24 853 25.19 23.6 74.5 15 -4 24.9
14:50 1023 30.21 853 25.19 23.5 74.3 15 -4 24.8
14:55 1023 30.21 853 25.19 23.1 73.5 16 -4 24.8
15:00 1023 30.21 853 25.19 23.6 74.5 16 -3.8 25.1
15:05 1023 30.21 853 25.19 23.5 74.2 15 -4.2 24.4
15:10 1023 30.21 852 25.16 24.5 76.2 15 -3.6 25.6
15:15 1023 30.21 852 25.16 24.5 76.2 15 -3.9 25
15:20 1023 30.21 852 25.16 24.5 76 15 -3.9 25.1
15:25 1023 30.21 852 25.16 24.2 75.6 15 -3.8 25.1
15:30 1023 30.21 852 25.16 24.6 76.4 14 -4.1 24.7
15:35 1023 30.21 852 25.16 25.3 77.6 14 -4 24.8
15:40 1023 30.21 852 25.16 25.6 78 14 -3.7 25.4
15:45 1023 30.21 852 25.16 25.2 77.4 15 -3.2 26.2
15:50 1023 30.21 852 25.16 25.3 77.5 14 -4.2 24.4
15:55 1023 30.21 852 25.16 25.5 78 14 -3.9 25.1
16:00 1023 30.21 852 25.16 26 78.9 14 -3.1 26.4
16:05 1022 30.18 852 25.16 26.4 79.5 14 -3.1 26.5
16:10 1022 30.18 852 25.16 25.7 78.3 14 -3.8 25.2
16:15 1022 30.18 852 25.16 25.8 78.4 14 -3.4 25.9
16:20 1022 30.18 852 25.16 25.9 78.6 14 -3.5 25.6
16:25 1022 30.18 852 25.16 25.6 78.1 14 -3.7 25.3
16:30 1022 30.18 851 25.13 26.2 79.1 14 -3.6 25.5
16:35 1022 30.18 851 25.13 25.3 77.6 14 -3.5 25.6
16:40 1022 30.18 851 25.13 25.8 78.4 14 -3.8 25.1
16:45 1022 30.18 851 25.13 26.6 79.9 13 -3.5 25.6
16:50 1022 30.18 851 25.13 26.8 80.2 14 -3.1 26.5
16:55 1022 30.18 851 25.13 26 78.7 14 -3 26.7
17:00 1022 30.18 851 25.13 25.2 77.4 14 -3.8 25.1
17:05 1022 30.18 851 25.13 25.5 77.8 13 -4.3 24.3
17:10 1022 30.18 851 25.13 25.4 77.8 14 -4.1 24.6
17:15 1022 30.18 851 25.13 25.1 77.2 14 -4.1 24.6
17:20 1022 30.18 851 25.13 25.2 77.4 13 -4.6 23.7
17:25 1022 30.18 851 25.13 24.9 76.8 14 -4.5 23.8
17:30 1022 30.18 851 25.13 24.7 76.5 14 -4.7 23.6
17:35 1022 30.18 851 25.13 24.6 76.2 14 -4.6 23.7
17:40 1022 30.18 851 25.13 24.6 76.3 14 -4.3 24.3
17:45 1022 30.18 851 25.13 24.5 76.2 15 -4 24.8
17:50 1022 30.18 851 25.13 24.6 76.2 14 -4.2 24.5
17:55 1022 30.18 851 25.13 24.3 75.8 15 -3.9 24.9
18:00 1022 30.18 851 25.13 24 75.1 15 -4.3 24.3
18:05 1022 30.18 851 25.13 23.8 74.8 15 -4.2 24.5
18:10 1022 30.18 851 25.13 23.5 74.3 16 -3.9 24.9
18:15 1022 30.18 851 25.13 23.4 74 16 -4 24.8
18:20 1022 30.18 851 25.13 23.3 73.9 16 -4.1 24.7
18:25 1022 30.18 851 25.13 22.9 73.2 16 -4.3 24.3
18:30 1022 30.18 851 25.13 22.7 72.8 16 -4.2 24.4
18:35 1022 30.18 851 25.13 22.6 72.7 16 -3.9 24.9
18:40 1022 30.18 851 25.13 22.4 72.3 16 -4.7 23.5
18:45 1022 30.18 851 25.13 22.3 72.1 16 -4.4 24.1
18:50 1022 30.18 851 25.13 22.2 71.9 17 -3.7 25.3
18:55 1022 30.18 851 25.13 22 71.5 18 -3.5 25.7
19:00 1022 30.18 851 25.13 21.8 71.2 18 -3.3 26
19:05 1022 30.18 851 25.13 21.6 70.9 18 -3.3 26
19:10 1022 30.18 851 25.13 21.4 70.6 18 -3.9 25
19:15 1022 30.18 851 25.13 21.3 70.3 18 -3.8 25.1
19:20 1022 30.18 851 25.13 21.1 69.9 18 -4.2 24.5
19:25 1021 30.15 851 25.13 20.9 69.6 18 -4.4 24.1
19:30 1022 30.18 851 25.13 20.7 69.3 18 -4.6 23.7
19:35 1022 30.18 851 25.13 20.6 69.1 17 -4.8 23.3
19:40 1022 30.18 851 25.13 20.4 68.8 18 -4.6 23.7
19:45 1022 30.18 851 25.13 20.3 68.5 18 -4.9 23.3
19:50 1022 30.18 851 25.13 20.1 68.1 17 -5.3 22.5
19:55 1021 30.15 851 25.13 19.9 67.9 17 -6 21.3
20:00 1022 30.18 851 25.13 19.8 67.6 17 -5.5 22.1
20:05 1022 30.18 851 25.13 19.7 67.4 17 -5.7 21.7
20:10 1022 30.18 851 25.13 19.6 67.3 17 -5.9 21.4
20:15 1022 30.18 851 25.13 19.4 66.9 18 -5.8 21.6
20:20 1022 30.18 851 25.13 19.3 66.7 18 -5.8 21.6
20:25 1022 30.18 851 25.13 19.1 66.4 18 -5.9 21.4
20:30 1022 30.18 851 25.13 19 66.2 18 -5.8 21.6
20:35 1022 30.18 851 25.13 18.7 65.6 18 -5.8 21.6
20:40 1022 30.18 851 25.13 18.5 65.3 19 -5.6 21.8
20:45 1022 30.18 851 25.13 18.4 65 18 -5.9 21.4
20:50 1022 30.18 851 25.13 18.3 65 18 -6.1 20.9
20:55 1022 30.18 851 25.13 18.4 65.1 18 -6.1 21
21:00 1022 30.18 851 25.13 18.3 65 18 -6.2 20.9
21:05 1022 30.18 851 25.13 18.2 64.7 19 -6 21.2
21:10 1022 30.18 851 25.13 18.1 64.6 18 -6.2 20.9
21:15 1022 30.18 851 25.13 18.2 64.7 18 -6.1 21.1
21:20 1022 30.18 851 25.13 18.2 64.8 18 -6 21.1
21:25 1022 30.18 852 25.16 18.2 64.7 19 -5.8 21.6
21:30 1022 30.18 852 25.16 18 64.4 19 -5.6 21.9
21:35 1022 30.18 852 25.16 17.8 64 20 -5.6 22
21:40 1022 30.18 852 25.16 17.7 63.9 20 -5.6 21.9
21:45 1022 30.18 852 25.16 17.6 63.7 20 -5.4 22.2
21:50 1022 30.18 852 25.16 17.5 63.5 20 -5.3 22.4
21:55 1022 30.18 852 25.16 17.5 63.6 21 -5.1 22.9
22:00 1022 30.18 852 25.16 17.4 63.4 21 -5 23.1
22:05 1022 30.18 852 25.16 17.3 63.1 21 -4.9 23.2
22:10 1022 30.18 852 25.16 17.4 63.3 21 -4.8 23.3
22:15 1022 30.18 852 25.16 17.3 63.1 22 -4.5 23.9
22:20 1022 30.18 852 25.16 17.1 62.8 22 -4.6 23.7
22:25 1022 30.18 852 25.16 17.1 62.7 23 -4.4 24.1
22:30 1022 30.18 851 25.13 17 62.7 23 -4.4 24.1
22:35 1022 30.18 852 25.16 17.1 62.7 23 -4.3 24.2
22:40 1022 30.18 851 25.13 17 62.6 23 -4.4 24.1
22:45 1022 30.18 851 25.13 17 62.5 23 -4.4 24.1
22:50 1022 30.18 851 25.13 16.9 62.4 23 -4.3 24.3
22:55 1022 30.18 851 25.13 16.8 62.3 23 -4.3 24.2
23:00 1022 30.18 851 25.13 16.9 62.3 23 -4.5 23.9
23:05 1022 30.18 851 25.13 16.9 62.4 23 -4.3 24.2
23:10 1022 30.18 851 25.13 16.8 62.2 23 -4.4 24.1
23:15 1022 30.18 851 25.13 16.7 62.1 23 -4.4 24.1
23:20 1022 30.18 851 25.13 16.7 62.1 23 -4.6 23.7
23:25 1022 30.18 851 25.13 16.7 62 23 -4.4 24.1
23:30 1022 30.18 851 25.13 16.5 61.7 23 -4.5 23.8
23:35 1022 30.18 851 25.13 16.5 61.7 23 -4.7 23.6
23:40 1022 30.18 851 25.13 16.4 61.6 23 -4.4 24
23:45 1022 30.18 851 25.13 16.4 61.5 23 -4.5 23.8
23:50 1022 30.18 851 25.13 16.2 61.2 23 -4.7 23.6
23:55 1022 30.18 851 25.13 16.3 61.3 23 -4.7 23.6
24:00 1022 30.18 851 25.13 16.2 61.1 23 -4.8 23.4